If you wish to contribute or participate in the discussions about articles you are invited to join SKYbrary as a registered user

 Actions

Edwards Air Force Base

From SKYbrary Wiki

KEDW
Airport
ICAO: KEDW
Summary
Name Edwards Air Force Base
Region North America
Territory United States US.gif
Location Edwards, California
Serving
Coordinates 34° 54' 19.81" N, 117° 53' 4.21" W
Runways
Designator Length Width Surface ROPS
04L/22R 3658 m12,001.312 ft
61 m200.131 ft
ASPH yes/yes
04R/22L 4579 m15,022.966 ft
91 m298.556 ft
CONC yes/yes
6/24 2438 m7,998.688 ft
15 m49.213 ft
CON yes/yes


METAR
Observation KEDW 201058Z 20006KT 50SM CLR 12/02 A2989 RMK AO2A SLP108 T01230016
Station Edwards Air Force Base
Date/Time 20 September 2019 10:58:00
Wind direction 200°
Wind speed 06 kts
Lowest cloud amount n/a
Temperature 12.3°C
Dew point 1.6°C
Humidity 47%
QNH hPa
Weather condition n/a

Edwards Air Force Base

ICAO: KEDW IATA: EDW

Description

Edwards Air Force Base is a United States Air Force base located on the border of Kern County, Los Angeles County, and San Bernardino County, California, in the Antelope Valley. It is 6 nautical miles southwest of the central business district of North Edwards, California and 11 km due east of Rosamond.

Maps

Terrain

Loading map...

Airport Layout

Loading map...


Accidents & Serious Incidents at or in vicinity of KEDW

None on SKYbrary